sensor_id;sensor_type;location;lat;lon;timestamp;pressure;altitude;pressure_sealevel;temperature;humidity
60055;BME280;45930;53.514;55.904;2022-12-11T00:00:24;50009.53;;;-149.77;92.96
60055;BME280;45930;53.514;55.904;2022-12-11T00:01:24;49993.69;;;-149.77;92.44
60055;BME280;45930;53.514;55.904;2022-12-11T00:02:27;50007.53;;;-149.77;92.46
60055;BME280;45930;53.514;55.904;2022-12-11T00:03:28;50007.53;;;-149.77;92.08
60055;BME280;45930;53.514;55.904;2022-12-11T00:04:29;50007.53;;;-149.77;92.96
60055;BME280;45930;53.514;55.904;2022-12-11T00:05:30;50011.50;;;-149.77;92.96
60055;BME280;45930;53.514;55.904;2022-12-11T00:06:31;50007.53;;;-149.77;92.84
60055;BME280;45930;53.514;55.904;2022-12-11T00:07:32;49985.75;;;-149.77;92.82
60055;BME280;45930;53.514;55.904;2022-12-11T00:08:33;49997.63;;;-149.77;92.60
60055;BME280;45930;53.514;55.904;2022-12-11T00:09:34;50057.06;;;-149.77;92.27
60055;BME280;45930;53.514;55.904;2022-12-11T00:10:35;50019.44;;;-149.77;92.87
60055;BME280;45930;53.514;55.904;2022-12-11T00:11:35;50003.59;;;-149.77;92.35
60055;BME280;45930;53.514;55.904;2022-12-11T00:12:36;50003.59;;;-149.77;92.20
60055;BME280;45930;53.514;55.904;2022-12-11T00:13:37;49977.84;;;-149.77;92.20
60055;BME280;45930;53.514;55.904;2022-12-11T00:14:37;50007.53;;;-149.77;91.88
60055;BME280;45930;53.514;55.904;2022-12-11T00:15:38;49977.84;;;-149.77;91.45
60055;BME280;45930;53.514;55.904;2022-12-11T00:16:40;49952.06;;;-149.77;91.63
60055;BME280;45930;53.514;55.904;2022-12-11T00:17:40;49999.63;;;-149.77;91.79
60055;BME280;45930;53.514;55.904;2022-12-11T00:18:41;49987.75;;;-149.77;92.54
60055;BME280;45930;53.514;55.904;2022-12-11T00:19:42;50007.53;;;-149.77;93.72
60055;BME280;45930;53.514;55.904;2022-12-11T00:20:42;49987.75;;;-149.77;94.12
60055;BME280;45930;53.514;55.904;2022-12-11T00:21:43;50009.53;;;-149.77;93.59
60055;BME280;45930;53.514;55.904;2022-12-11T00:22:44;49999.63;;;-149.77;93.00
60055;BME280;45930;53.514;55.904;2022-12-11T00:23:45;50023.41;;;-149.77;93.36
60055;BME280;45930;53.514;55.904;2022-12-11T00:24:45;50021.41;;;-149.77;93.63
60055;BME280;45930;53.514;55.904;2022-12-11T00:25:47;49999.63;;;-149.77;93.83
60055;BME280;45930;53.514;55.904;2022-12-11T00:26:47;49979.81;;;-149.77;94.11
60055;BME280;45930;53.514;55.904;2022-12-11T00:27:48;49995.66;;;-149.77;93.97
60055;BME280;45930;53.514;55.904;2022-12-11T00:28:55;50011.50;;;-149.77;93.94
60055;BME280;45930;53.514;55.904;2022-12-11T00:29:56;50055.09;;;-149.77;93.74
60055;BME280;45930;53.514;55.904;2022-12-11T00:30:56;49997.63;;;-149.77;93.39
60055;BME280;45930;53.514;55.904;2022-12-11T00:31:57;50007.53;;;-149.77;93.18
60055;BME280;45930;53.514;55.904;2022-12-11T00:32:58;50007.53;;;-149.77;92.64
60055;BME280;45930;53.514;55.904;2022-12-11T00:34:00;50009.53;;;-149.77;92.81
60055;BME280;45930;53.514;55.904;2022-12-11T00:35:01;50007.53;;;-149.77;92.42
60055;BME280;45930;53.514;55.904;2022-12-11T00:36:13;49983.78;;;-149.77;92.51
60055;BME280;45930;53.514;55.904;2022-12-11T00:37:14;49981.78;;;-149.77;92.83
60055;BME280;45930;53.514;55.904;2022-12-11T00:38:17;50001.59;;;-149.77;92.45
60055;BME280;45930;53.514;55.904;2022-12-11T00:39:18;49973.88;;;-149.77;91.38
60055;BME280;45930;53.514;55.904;2022-12-11T00:40:18;49995.66;;;-149.77;91.47
60055;BME280;45930;53.514;55.904;2022-12-11T00:41:20;50015.47;;;-149.77;91.15
60055;BME280;45930;53.514;55.904;2022-12-11T00:42:20;50001.59;;;-149.77;91.10
60055;BME280;45930;53.514;55.904;2022-12-11T00:43:21;50037.25;;;-149.77;90.84
60055;BME280;45930;53.514;55.904;2022-12-11T00:44:22;50023.41;;;-149.77;91.02
60055;BME280;45930;53.514;55.904;2022-12-11T00:45:23;50013.50;;;-149.77;91.13
60055;BME280;45930;53.514;55.904;2022-12-11T00:46:23;49999.63;;;-149.77;91.19
60055;BME280;45930;53.514;55.904;2022-12-11T00:47:24;50007.53;;;-149.77;90.86
60055;BME280;45930;53.514;55.904;2022-12-11T00:48:25;50001.59;;;-149.77;89.64
60055;BME280;45930;53.514;55.904;2022-12-11T00:49:25;50015.47;;;-149.77;89.41
60055;BME280;45930;53.514;55.904;2022-12-11T00:50:26;49995.66;;;-149.77;89.51
60055;BME280;45930;53.514;55.904;2022-12-11T00:51:27;50007.53;;;-149.77;89.92
60055;BME280;45930;53.514;55.904;2022-12-11T00:52:30;50015.47;;;-149.77;89.81
60055;BME280;45930;53.514;55.904;2022-12-11T00:53:31;49950.09;;;-149.77;89.19
60055;BME280;45930;53.514;55.904;2022-12-11T00:54:33;49975.84;;;-149.77;88.90
60055;BME280;45930;53.514;55.904;2022-12-11T00:55:38;49979.81;;;-149.77;88.75
60055;BME280;45930;53.514;55.904;2022-12-11T00:56:39;49956.03;;;-149.77;88.28
60055;BME280;45930;53.514;55.904;2022-12-11T00:57:40;49971.88;;;-149.77;88.80
60055;BME280;45930;53.514;55.904;2022-12-11T00:58:41;49993.69;;;-149.77;88.92
60055;BME280;45930;53.514;55.904;2022-12-11T00:59:41;49979.81;;;-149.77;88.78
60055;BME280;45930;53.514;55.904;2022-12-11T01:00:43;49997.63;;;-149.77;89.00
60055;BME280;45930;53.514;55.904;2022-12-11T01:01:43;50007.53;;;-149.77;88.68
60055;BME280;45930;53.514;55.904;2022-12-11T01:02:48;49991.69;;;-149.77;89.09
60055;BME280;45930;53.514;55.904;2022-12-11T01:03:49;50011.50;;;-149.77;89.42
60055;BME280;45930;53.514;55.904;2022-12-11T01:04:50;50005.56;;;-149.77;89.21
60055;BME280;45930;53.514;55.904;2022-12-11T01:05:54;50001.59;;;-149.77;89.06
60055;BME280;45930;53.514;55.904;2022-12-11T01:06:55;49981.78;;;-149.77;89.73
60055;BME280;45930;53.514;55.904;2022-12-11T01:07:56;49973.88;;;-149.77;89.80
60055;BME280;45930;53.514;55.904;2022-12-11T01:08:56;50007.53;;;-149.77;89.68
60055;BME280;45930;53.514;55.904;2022-12-11T01:10:16;49979.81;;;-149.77;88.67
60055;BME280;45930;53.514;55.904;2022-12-11T01:11:25;49995.66;;;-149.77;89.00
60055;BME280;45930;53.514;55.904;2022-12-11T01:12:26;50013.50;;;-149.77;88.76
60055;BME280;45930;53.514;55.904;2022-12-11T01:13:28;50021.41;;;-149.77;88.90
60055;BME280;45930;53.514;55.904;2022-12-11T01:14:28;50011.50;;;-149.77;89.49
60055;BME280;45930;53.514;55.904;2022-12-11T01:15:32;49983.78;;;-149.77;88.94
60055;BME280;45930;53.514;55.904;2022-12-11T01:16:34;49993.69;;;-149.77;88.18
60055;BME280;45930;53.514;55.904;2022-12-11T01:17:34;49993.69;;;-149.77;89.18
60055;BME280;45930;53.514;55.904;2022-12-11T01:18:36;49969.91;;;-149.77;89.14
60055;BME280;45930;53.514;55.904;2022-12-11T01:19:37;50003.59;;;-149.77;88.89
60055;BME280;45930;53.514;55.904;2022-12-11T01:20:39;49958.03;;;-149.77;88.42
60055;BME280;45930;53.514;55.904;2022-12-11T01:21:40;50005.56;;;-149.77;89.30
60055;BME280;45930;53.514;55.904;2022-12-11T01:22:41;50003.59;;;-149.77;89.51
60055;BME280;45930;53.514;55.904;2022-12-11T01:23:42;50045.19;;;-149.77;89.31
60055;BME280;45930;53.514;55.904;2022-12-11T01:24:42;50031.31;;;-149.77;89.79
60055;BME280;45930;53.514;55.904;2022-12-11T01:25:43;49973.88;;;-149.77;89.05
60055;BME280;45930;53.514;55.904;2022-12-11T01:26:47;50007.53;;;-149.77;88.81
60055;BME280;45930;53.514;55.904;2022-12-11T01:27:52;50003.59;;;-149.77;88.83
60055;BME280;45930;53.514;55.904;2022-12-11T01:28:53;50007.53;;;-149.77;88.91
60055;BME280;45930;53.514;55.904;2022-12-11T01:29:54;49987.75;;;-149.77;89.04
60055;BME280;45930;53.514;55.904;2022-12-11T01:30:54;49991.69;;;-149.77;88.54
60055;BME280;45930;53.514;55.904;2022-12-11T01:31:55;49975.84;;;-149.77;88.82
60055;BME280;45930;53.514;55.904;2022-12-11T01:32:56;49989.72;;;-149.77;88.68
60055;BME280;45930;53.514;55.904;2022-12-11T01:33:56;50015.47;;;-149.77;87.58
60055;BME280;45930;53.514;55.904;2022-12-11T01:34:57;49993.69;;;-149.77;88.11
60055;BME280;45930;53.514;55.904;2022-12-11T01:35:58;50027.34;;;-149.77;87.39
60055;BME280;45930;53.514;55.904;2022-12-11T01:36:59;50023.41;;;-149.77;88.25
60055;BME280;45930;53.514;55.904;2022-12-11T01:37:59;49985.75;;;-149.77;88.06
60055;BME280;45930;53.514;55.904;2022-12-11T01:39:00;50001.59;;;-149.77;87.23
60055;BME280;45930;53.514;55.904;2022-12-11T01:40:02;50007.53;;;-149.77;87.22
60055;BME280;45930;53.514;55.904;2022-12-11T01:41:03;50037.25;;;-149.77;86.24
60055;BME280;45930;53.514;55.904;2022-12-11T01:42:04;50005.56;;;-149.77;86.09
60055;BME280;45930;53.514;55.904;2022-12-11T01:43:10;49991.69;;;-149.77;85.88
60055;BME280;45930;53.514;55.904;2022-12-11T01:46:20;49975.84;;;-149.77;85.59
60055;BME280;45930;53.514;55.904;2022-12-11T01:47:21;49985.75;;;-149.77;85.86
60055;BME280;45930;53.514;55.904;2022-12-11T01:48:28;49975.84;;;-149.77;86.41
60055;BME280;45930;53.514;55.904;2022-12-11T01:49:30;50009.53;;;-149.77;86.88
60055;BME280;45930;53.514;55.904;2022-12-11T01:50:33;50001.59;;;-149.77;86.64
60055;BME280;45930;53.514;55.904;2022-12-11T01:51:40;49979.81;;;-149.77;86.53
60055;BME280;45930;53.514;55.904;2022-12-11T01:52:45;49973.88;;;-149.77;86.69
60055;BME280;45930;53.514;55.904;2022-12-11T01:53:58;50017.44;;;-149.77;86.55
60055;BME280;45930;53.514;55.904;2022-12-11T01:55:00;49989.72;;;-149.77;86.61
60055;BME280;45930;53.514;55.904;2022-12-11T01:56:01;50017.44;;;-149.77;87.24
60055;BME280;45930;53.514;55.904;2022-12-11T01:57:07;49979.81;;;-149.77;86.92
60055;BME280;45930;53.514;55.904;2022-12-11T01:58:09;49983.78;;;-149.77;87.15
60055;BME280;45930;53.514;55.904;2022-12-11T01:59:15;49983.78;;;-149.77;88.00
60055;BME280;45930;53.514;55.904;2022-12-11T02:00:17;49950.09;;;-149.77;88.32
60055;BME280;45930;53.514;55.904;2022-12-11T02:01:31;50013.50;;;-149.77;89.21
60055;BME280;45930;53.514;55.904;2022-12-11T02:02:33;50015.47;;;-149.77;89.66
60055;BME280;45930;53.514;55.904;2022-12-11T02:03:34;50001.59;;;-149.77;89.33
60055;BME280;45930;53.514;55.904;2022-12-11T02:04:37;49971.88;;;-149.77;88.92
60055;BME280;45930;53.514;55.904;2022-12-11T02:05:38;50007.53;;;-149.77;89.40
60055;BME280;45930;53.514;55.904;2022-12-11T02:06:44;49985.75;;;-149.77;89.91
60055;BME280;45930;53.514;55.904;2022-12-11T02:07:51;50015.47;;;-149.77;90.62
60055;BME280;45930;53.514;55.904;2022-12-11T02:08:54;49969.91;;;-149.77;91.48
60055;BME280;45930;53.514;55.904;2022-12-11T02:09:55;50011.50;;;-149.77;90.82
60055;BME280;45930;53.514;55.904;2022-12-11T02:17:25;49999.63;;;-149.77;90.31
60055;BME280;45930;53.514;55.904;2022-12-11T02:20:57;49977.84;;;-149.77;89.30
60055;BME280;45930;53.514;55.904;2022-12-11T02:22:06;49963.97;;;-149.77;88.66
60055;BME280;45930;53.514;55.904;2022-12-11T02:25:30;50019.44;;;-149.77;88.57
60055;BME280;45930;53.514;55.904;2022-12-11T02:27:02;49997.63;;;-149.77;87.48
60055;BME280;45930;53.514;55.904;2022-12-11T02:29:17;49967.94;;;-149.77;87.25
60055;BME280;45930;53.514;55.904;2022-12-11T02:30:19;49991.69;;;-149.77;88.04
60055;BME280;45930;53.514;55.904;2022-12-11T02:31:34;50007.53;;;-149.77;88.42
60055;BME280;45930;53.514;55.904;2022-12-11T02:32:57;50005.56;;;-149.77;88.26
60055;BME280;45930;53.514;55.904;2022-12-11T02:35:24;50001.59;;;-149.77;87.71
60055;BME280;45930;53.514;55.904;2022-12-11T02:36:29;50003.59;;;-149.77;87.15
60055;BME280;45930;53.514;55.904;2022-12-11T02:37:33;50005.56;;;-149.77;87.58
60055;BME280;45930;53.514;55.904;2022-12-11T02:38:38;49991.69;;;-149.77;87.86
60055;BME280;45930;53.514;55.904;2022-12-11T02:39:42;49969.91;;;-149.77;87.46
60055;BME280;45930;53.514;55.904;2022-12-11T02:40:46;50007.53;;;-149.77;87.88
60055;BME280;45930;53.514;55.904;2022-12-11T02:41:50;49995.66;;;-149.77;87.99
60055;BME280;45930;53.514;55.904;2022-12-11T02:42:51;49979.81;;;-149.77;87.95
60055;BME280;45930;53.514;55.904;2022-12-11T02:43:55;49999.63;;;-149.77;87.58
60055;BME280;45930;53.514;55.904;2022-12-11T02:44:58;49989.72;;;-149.77;88.06
60055;BME280;45930;53.514;55.904;2022-12-11T02:46:02;50027.34;;;-149.77;87.66
60055;BME280;45930;53.514;55.904;2022-12-11T02:47:09;50001.59;;;-149.77;88.89
60055;BME280;45930;53.514;55.904;2022-12-11T02:48:12;50007.53;;;-149.77;88.11
60055;BME280;45930;53.514;55.904;2022-12-11T02:49:15;49975.84;;;-149.77;86.36
60055;BME280;45930;53.514;55.904;2022-12-11T02:50:20;50005.56;;;-149.77;86.23
60055;BME280;45930;53.514;55.904;2022-12-11T02:51:27;49983.78;;;-149.77;86.10
60055;BME280;45930;53.514;55.904;2022-12-11T02:52:29;49991.69;;;-149.77;85.90
60055;BME280;45930;53.514;55.904;2022-12-11T02:53:31;49971.88;;;-149.77;85.06
60055;BME280;45930;53.514;55.904;2022-12-11T02:54:36;49995.66;;;-149.77;84.89
60055;BME280;45930;53.514;55.904;2022-12-11T02:55:39;49989.72;;;-149.77;84.55
60055;BME280;45930;53.514;55.904;2022-12-11T02:58:01;49985.75;;;-149.77;83.12
60055;BME280;45930;53.514;55.904;2022-12-11T02:59:09;49995.66;;;-149.77;83.70
60055;BME280;45930;53.514;55.904;2022-12-11T03:00:12;49993.69;;;-149.77;84.44
60055;BME280;45930;53.514;55.904;2022-12-11T03:01:13;49999.63;;;-149.77;84.60
60055;BME280;45930;53.514;55.904;2022-12-11T03:02:15;49979.81;;;-149.77;83.84
60055;BME280;45930;53.514;55.904;2022-12-11T03:03:17;49989.72;;;-149.77;83.32
60055;BME280;45930;53.514;55.904;2022-12-11T03:04:17;49991.69;;;-149.77;83.75
60055;BME280;45930;53.514;55.904;2022-12-11T03:05:18;50001.59;;;-149.77;83.25
60055;BME280;45930;53.514;55.904;2022-12-11T03:06:21;49960.00;;;-149.77;83.69
60055;BME280;45930;53.514;55.904;2022-12-11T03:07:27;49967.94;;;-149.77;82.93
60055;BME280;45930;53.514;55.904;2022-12-11T03:08:28;49981.78;;;-149.77;82.79
60055;BME280;45930;53.514;55.904;2022-12-11T03:09:29;50011.50;;;-149.77;82.45
60055;BME280;45930;53.514;55.904;2022-12-11T03:10:30;50013.50;;;-149.77;82.45
60055;BME280;45930;53.514;55.904;2022-12-11T03:11:31;49997.63;;;-149.77;82.21
60055;BME280;45930;53.514;55.904;2022-12-11T03:12:35;49979.81;;;-149.77;82.36
60055;BME280;45930;53.514;55.904;2022-12-11T03:13:38;49997.63;;;-149.77;82.26
60055;BME280;45930;53.514;55.904;2022-12-11T03:14:41;49956.03;;;-149.77;82.07
60055;BME280;45930;53.514;55.904;2022-12-11T03:15:55;49995.66;;;-149.77;83.32
60055;BME280;45930;53.514;55.904;2022-12-11T03:18:11;50001.59;;;-149.77;84.51
60055;BME280;45930;53.514;55.904;2022-12-11T03:19:23;49999.63;;;-149.77;83.71
60055;BME280;45930;53.514;55.904;2022-12-11T03:20:42;50003.59;;;-149.77;82.39
60055;BME280;45930;53.514;55.904;2022-12-11T03:21:57;49977.84;;;-149.77;81.75
60055;BME280;45930;53.514;55.904;2022-12-11T03:25:24;49997.63;;;-149.77;83.07
60055;BME280;45930;53.514;55.904;2022-12-11T03:26:25;49975.84;;;-149.77;83.33
60055;BME280;45930;53.514;55.904;2022-12-11T03:27:40;49987.75;;;-149.77;82.96
60055;BME280;45930;53.514;55.904;2022-12-11T03:29:02;49979.81;;;-149.77;82.80
60055;BME280;45930;53.514;55.904;2022-12-11T03:30:24;49971.88;;;-149.77;82.54
60055;BME280;45930;53.514;55.904;2022-12-11T03:31:38;49971.88;;;-149.77;82.38
60055;BME280;45930;53.514;55.904;2022-12-11T03:32:53;49983.78;;;-149.77;82.21
60055;BME280;45930;53.514;55.904;2022-12-11T03:33:58;49975.84;;;-149.77;82.96
60055;BME280;45930;53.514;55.904;2022-12-11T03:35:11;50007.53;;;-149.77;82.89
60055;BME280;45930;53.514;55.904;2022-12-11T03:36:23;49969.91;;;-149.77;82.31
60055;BME280;45930;53.514;55.904;2022-12-11T03:37:27;49979.81;;;-149.77;82.14
60055;BME280;45930;53.514;55.904;2022-12-11T03:38:36;49991.69;;;-149.77;83.87
60055;BME280;45930;53.514;55.904;2022-12-11T03:39:43;49993.69;;;-149.77;83.35
60055;BME280;45930;53.514;55.904;2022-12-11T03:40:49;49975.84;;;-149.77;84.29
60055;BME280;45930;53.514;55.904;2022-12-11T03:41:52;49991.69;;;-149.77;83.57
60055;BME280;45930;53.514;55.904;2022-12-11T03:42:55;49991.69;;;-149.77;83.13
60055;BME280;45930;53.514;55.904;2022-12-11T03:43:59;49983.78;;;-149.77;82.70
60055;BME280;45930;53.514;55.904;2022-12-11T03:45:02;49997.63;;;-149.77;83.02
60055;BME280;45930;53.514;55.904;2022-12-11T03:46:05;49983.78;;;-149.77;83.67
60055;BME280;45930;53.514;55.904;2022-12-11T03:47:07;50011.50;;;-149.77;83.81
60055;BME280;45930;53.514;55.904;2022-12-11T03:48:10;49971.88;;;-149.77;82.77
60055;BME280;45930;53.514;55.904;2022-12-11T03:49:19;49983.78;;;-149.77;83.10
60055;BME280;45930;53.514;55.904;2022-12-11T03:50:25;50003.59;;;-149.77;83.42
60055;BME280;45930;53.514;55.904;2022-12-11T03:51:29;50017.44;;;-149.77;83.11
60055;BME280;45930;53.514;55.904;2022-12-11T03:52:31;49985.75;;;-149.77;82.50
60055;BME280;45930;53.514;55.904;2022-12-11T03:53:36;49989.72;;;-149.77;82.24
60055;BME280;45930;53.514;55.904;2022-12-11T03:54:39;49989.72;;;-149.77;82.65
60055;BME280;45930;53.514;55.904;2022-12-11T03:55:40;49983.78;;;-149.77;82.95
60055;BME280;45930;53.514;55.904;2022-12-11T03:56:43;49993.69;;;-149.77;82.99
60055;BME280;45930;53.514;55.904;2022-12-11T03:57:45;49999.63;;;-149.77;82.71
60055;BME280;45930;53.514;55.904;2022-12-11T03:58:46;49989.72;;;-149.77;82.67
60055;BME280;45930;53.514;55.904;2022-12-11T03:59:48;49993.69;;;-149.77;82.36
60055;BME280;45930;53.514;55.904;2022-12-11T04:00:49;49981.78;;;-149.77;81.97
60055;BME280;45930;53.514;55.904;2022-12-11T04:01:50;49979.81;;;-149.77;82.83
60055;BME280;45930;53.514;55.904;2022-12-11T04:02:50;49989.72;;;-149.77;83.71
60055;BME280;45930;53.514;55.904;2022-12-11T04:04:10;49987.75;;;-149.77;83.86
60055;BME280;45930;53.514;55.904;2022-12-11T04:05:11;49958.03;;;-149.77;84.40
60055;BME280;45930;53.514;55.904;2022-12-11T04:06:12;50013.50;;;-149.77;84.09
60055;BME280;45930;53.514;55.904;2022-12-11T04:07:13;49993.69;;;-149.77;82.59
60055;BME280;45930;53.514;55.904;2022-12-11T04:08:14;49983.78;;;-149.77;82.17
60055;BME280;45930;53.514;55.904;2022-12-11T04:09:16;49979.81;;;-149.77;81.88
60055;BME280;45930;53.514;55.904;2022-12-11T04:10:17;49977.84;;;-149.77;81.97
60055;BME280;45930;53.514;55.904;2022-12-11T04:11:17;49961.97;;;-149.77;81.45
60055;BME280;45930;53.514;55.904;2022-12-11T04:12:36;49989.72;;;-149.77;81.47
60055;BME280;45930;53.514;55.904;2022-12-11T04:13:38;49975.84;;;-149.77;82.03
60055;BME280;45930;53.514;55.904;2022-12-11T04:14:39;50001.59;;;-149.77;81.51
60055;BME280;45930;53.514;55.904;2022-12-11T04:15:58;49985.75;;;-149.77;80.90
60055;BME280;45930;53.514;55.904;2022-12-11T04:17:00;49983.78;;;-149.77;80.83
60055;BME280;45930;53.514;55.904;2022-12-11T04:18:00;49981.78;;;-149.77;80.72
60055;BME280;45930;53.514;55.904;2022-12-11T04:19:20;50003.59;;;-149.77;79.97
60055;BME280;45930;53.514;55.904;2022-12-11T04:20:39;49975.84;;;-149.77;78.69
60055;BME280;45930;53.514;55.904;2022-12-11T04:21:59;49979.81;;;-149.77;79.39
60055;BME280;45930;53.514;55.904;2022-12-11T04:23:18;49963.97;;;-149.77;79.18
60055;BME280;45930;53.514;55.904;2022-12-11T04:24:37;49981.78;;;-149.77;78.53
60055;BME280;45930;53.514;55.904;2022-12-11T04:25:38;49977.84;;;-149.77;78.41
60055;BME280;45930;53.514;55.904;2022-12-11T04:26:39;49956.03;;;-149.77;78.96
60055;BME280;45930;53.514;55.904;2022-12-11T04:27:40;49967.94;;;-149.77;78.40
60055;BME280;45930;53.514;55.904;2022-12-11T04:28:50;49975.84;;;-149.77;78.73
60055;BME280;45930;53.514;55.904;2022-12-11T04:29:54;49956.03;;;-149.77;78.10
60055;BME280;45930;53.514;55.904;2022-12-11T04:30:55;49967.94;;;-149.77;78.93
60055;BME280;45930;53.514;55.904;2022-12-11T04:31:55;49979.81;;;-149.77;78.27
60055;BME280;45930;53.514;55.904;2022-12-11T04:32:59;49960.00;;;-149.77;79.22
60055;BME280;45930;53.514;55.904;2022-12-11T04:34:00;49971.88;;;-149.77;79.48
60055;BME280;45930;53.514;55.904;2022-12-11T04:35:01;49985.75;;;-149.77;79.63
60055;BME280;45930;53.514;55.904;2022-12-11T04:36:02;49956.03;;;-149.77;79.36
60055;BME280;45930;53.514;55.904;2022-12-11T04:37:03;49936.22;;;-149.77;79.08
60055;BME280;45930;53.514;55.904;2022-12-11T04:38:03;49973.88;;;-149.77;78.32
60055;BME280;45930;53.514;55.904;2022-12-11T04:39:05;49960.00;;;-149.77;77.91
60055;BME280;45930;53.514;55.904;2022-12-11T04:40:08;49983.78;;;-149.77;78.36
60055;BME280;45930;53.514;55.904;2022-12-11T04:41:12;49979.81;;;-149.77;78.73
60055;BME280;45930;53.514;55.904;2022-12-11T04:42:13;49983.78;;;-149.77;78.33
60055;BME280;45930;53.514;55.904;2022-12-11T04:43:14;49961.97;;;-149.77;78.36
60055;BME280;45930;53.514;55.904;2022-12-11T04:44:15;49916.41;;;-149.77;78.61
60055;BME280;45930;53.514;55.904;2022-12-11T04:45:15;49960.00;;;-149.77;77.84
60055;BME280;45930;53.514;55.904;2022-12-11T04:46:21;49973.88;;;-149.77;76.90
60055;BME280;45930;53.514;55.904;2022-12-11T04:52:07;49934.25;;;-149.77;77.74
60055;BME280;45930;53.514;55.904;2022-12-11T04:53:07;49983.78;;;-149.77;77.35
60055;BME280;45930;53.514;55.904;2022-12-11T04:54:09;49944.16;;;-149.77;77.52
60055;BME280;45930;53.514;55.904;2022-12-11T04:55:10;49944.16;;;-149.77;76.46
60055;BME280;45930;53.514;55.904;2022-12-11T04:56:13;49973.88;;;-149.77;76.83
60055;BME280;45930;53.514;55.904;2022-12-11T04:57:14;49932.25;;;-149.77;76.32
60055;BME280;45930;53.514;55.904;2022-12-11T04:58:19;49969.91;;;-149.77;75.58
60055;BME280;45930;53.514;55.904;2022-12-11T04:59:19;49965.94;;;-149.77;75.89
60055;BME280;45930;53.514;55.904;2022-12-11T05:00:20;49928.31;;;-149.77;75.73
60055;BME280;45930;53.514;55.904;2022-12-11T05:01:22;49936.22;;;-149.77;76.28
60055;BME280;45930;53.514;55.904;2022-12-11T05:02:23;49950.09;;;-149.77;76.48
60055;BME280;45930;53.514;55.904;2022-12-11T05:03:23;49940.19;;;-149.77;76.16
60055;BME280;45930;53.514;55.904;2022-12-11T05:04:24;49922.34;;;-149.77;76.08
60055;BME280;45930;53.514;55.904;2022-12-11T05:05:25;49944.16;;;-149.77;75.19
60055;BME280;45930;53.514;55.904;2022-12-11T05:06:26;49938.22;;;-149.77;73.80
60055;BME280;45930;53.514;55.904;2022-12-11T05:07:27;49944.16;;;-149.77;73.78
60055;BME280;45930;53.514;55.904;2022-12-11T05:08:27;49920.38;;;-149.77;74.38
60055;BME280;45930;53.514;55.904;2022-12-11T05:09:31;49920.38;;;-149.77;74.84
60055;BME280;45930;53.514;55.904;2022-12-11T05:10:32;49956.03;;;-149.77;75.78
60055;BME280;45930;53.514;55.904;2022-12-11T05:11:33;49950.09;;;-149.77;74.61
60055;BME280;45930;53.514;55.904;2022-12-11T05:12:34;49958.03;;;-149.77;73.41
60055;BME280;45930;53.514;55.904;2022-12-11T05:13:35;49956.03;;;-149.77;73.03
60055;BME280;45930;53.514;55.904;2022-12-11T05:14:36;49944.16;;;-149.77;70.17
60055;BME280;45930;53.514;55.904;2022-12-11T05:15:39;49967.94;;;-149.77;71.10
60055;BME280;45930;53.514;55.904;2022-12-11T05:16:40;49954.06;;;-149.77;71.66
60055;BME280;45930;53.514;55.904;2022-12-11T05:17:41;49963.97;;;-149.77;72.80
60055;BME280;45930;53.514;55.904;2022-12-11T05:18:44;49890.66;;;-149.77;72.56
60055;BME280;45930;53.514;55.904;2022-12-11T05:19:50;49932.25;;;-149.77;71.77
60055;BME280;45930;53.514;55.904;2022-12-11T05:20:55;49924.34;;;-149.77;70.77
60055;BME280;45930;53.514;55.904;2022-12-11T05:21:57;49920.38;;;-149.77;70.88
60055;BME280;45930;53.514;55.904;2022-12-11T05:22:57;49916.41;;;-149.77;69.44
60055;BME280;45930;53.514;55.904;2022-12-11T05:23:58;49948.13;;;-149.77;68.46
60055;BME280;45930;53.514;55.904;2022-12-11T05:24:59;49940.19;;;-149.77;69.83
60055;BME280;45930;53.514;55.904;2022-12-11T05:26:02;49954.06;;;-149.77;69.06
60055;BME280;45930;53.514;55.904;2022-12-11T05:27:03;49940.19;;;-149.77;69.44
60055;BME280;45930;53.514;55.904;2022-12-11T05:28:04;49924.34;;;-149.77;69.46
60055;BME280;45930;53.514;55.904;2022-12-11T05:29:05;49912.44;;;-149.77;67.70
60055;BME280;45930;53.514;55.904;2022-12-11T05:30:06;49926.31;;;-149.77;68.56
60055;BME280;45930;53.514;55.904;2022-12-11T05:31:11;49930.28;;;-149.77;69.68
60055;BME280;45930;53.514;55.904;2022-12-11T05:32:13;49936.22;;;-149.77;68.48
60055;BME280;45930;53.514;55.904;2022-12-11T05:33:14;49912.44;;;-149.77;68.83
60055;BME280;45930;53.514;55.904;2022-12-11T05:34:14;49904.53;;;-149.77;68.53
60055;BME280;45930;53.514;55.904;2022-12-11T05:35:15;49942.16;;;-149.77;68.54
60055;BME280;45930;53.514;55.904;2022-12-11T05:36:21;49912.44;;;-149.77;68.41
60055;BME280;45930;53.514;55.904;2022-12-11T05:37:22;49924.34;;;-149.77;68.54
60055;BME280;45930;53.514;55.904;2022-12-11T05:38:23;49932.25;;;-149.77;67.75
60055;BME280;45930;53.514;55.904;2022-12-11T05:39:24;49926.31;;;-149.77;67.56
60055;BME280;45930;53.514;55.904;2022-12-11T05:40:25;49920.38;;;-149.77;66.97
60055;BME280;45930;53.514;55.904;2022-12-11T05:41:29;49898.59;;;-149.77;65.84
60055;BME280;45930;53.514;55.904;2022-12-11T05:42:31;49924.34;;;-149.77;65.11
60055;BME280;45930;53.514;55.904;2022-12-11T05:43:35;49918.41;;;-149.77;66.31
60055;BME280;45930;53.514;55.904;2022-12-11T05:44:36;49928.31;;;-149.77;67.45
60055;BME280;45930;53.514;55.904;2022-12-11T05:45:36;49898.59;;;-149.77;66.63
60055;BME280;45930;53.514;55.904;2022-12-11T05:46:39;49912.44;;;-149.77;66.87
60055;BME280;45930;53.514;55.904;2022-12-11T05:47:39;49902.53;;;-149.77;67.07
60055;BME280;45930;53.514;55.904;2022-12-11T05:48:41;49908.50;;;-149.77;66.72